Airport ICAO


18:37 UTC

11°C

Broken clouds


An affordable passengers' Moving Map for your aircraft. Made for the iPad and the iPhone
More information here

EGLL Heathrow


London UNITED KINGDOM   VFR


METAR EGLL 231820Z AUTO 05005KT 9999 BKN040 11/04 Q1032 NOSIG 0h17min

TAF EGLL 231658Z 2318/2424 08008KT 9999 FEW045 BECMG 2403/2406 33010KT PROB30 TEMPO 2403/2408 8000 BECMG 2418/2421 27008KT 1h39min





NOTAMS

OPEN

PILOT REPORTS

OPEN